Aérodrome :







RETROUVEZ-NOUS SUR...

 
LOGIN :

S'inscrire | Disclaimer

   EN    FR    IT 

 









Légende :    VFR   VFR Marginal   IFR   IFR Intensif   IFR Très Intensif
Visi : 
Plafond : 
>= 8 km
>= 3000ft
5 à 8 km
1000 à 3000 ft
1500m à 5 km
500 à 1000 ft
800 à 1500m
200 à 500 ft
< 800m
< 200 ft
Symboles :   Orages  Brouillard  Fortes neiges  Fortes précipitations  Vent > 20 kt






- Altitude de l'aérodrome : 1009 ft
- Code IATA : ORH


KORH - Worcester Regional

DERNIER METAR :
  • 111954Z 04008KT 10SM FEW036 BKN046 08/01 A3004 RMK AO2 SLP181 T00780006

METARs EXPIRÉS :
  • 111854Z 03005KT 10SM BKN039 OVC065 09/02 A3005 RMK AO2 SLP184 T00890017
  • 111754Z 36004KT 10SM OVC060 09/02 A3006 RMK AO2 SLP187 T00940022 10094 20044 57013

TAF KORH
Valide du 11 à 18h jusqu'au 12 à 18h UTC


111738Z 1118/1218 VRB03KT P6SM FEW025 BKN060
FM112200 05005KT P6SM OVC015
FM120600 36004KT 1 1/2SM BR OVC003
FM120900 21005KT 2SM -RA BR OVC003
FM121500 25010G20KT 3SM -RA BR OVC008
FM121700 29010G23KT 4SM -SNRA BR OVC015



MET'MAP, la Météo Aéronautique d'un coup d'oeil ! - Copyright ORBIFLY Décembre 2007 - Disclaimer

ORBIFLY MET'MAP TEAM :

Programmation & Développement : Alexandra Zaïnal
Conception & Développement : Baudouin d'Aumeries
Co-Programmation & Développement : Marc-Olivier Méhu
Soutien technique & logistique : Manuel Goepfert

Contact : metmap@orbifly.com




SOURCES & CREDITS :

   NOAA